sensor_id;sensor_type;location;lat;lon;timestamp;temperature;humidity
52139;DHT22;38131;53.256;6.460;2023-04-26T00:12:35;4.00;99.90
52139;DHT22;38131;53.256;6.460;2023-04-26T00:18:56;4.10;99.90
52139;DHT22;38131;53.256;6.460;2023-04-26T00:25:04;4.20;99.90
52139;DHT22;38131;53.256;6.460;2023-04-26T00:31:36;4.30;99.90
52139;DHT22;38131;53.256;6.460;2023-04-26T00:37:54;4.40;99.90
52139;DHT22;38131;53.256;6.460;2023-04-26T00:58:55;4.50;99.90
52139;DHT22;38131;53.256;6.460;2023-04-26T01:05:09;4.40;99.90
52139;DHT22;38131;53.256;6.460;2023-04-26T01:26:24;4.20;99.90
52139;DHT22;38131;53.256;6.460;2023-04-26T01:32:50;4.00;99.90
52139;DHT22;38131;53.256;6.460;2023-04-26T01:39:08;3.90;99.90
52139;DHT22;38131;53.256;6.460;2023-04-26T01:52:22;3.80;99.90
52139;DHT22;38131;53.256;6.460;2023-04-26T02:22:33;4.20;99.90
52139;DHT22;38131;53.256;6.460;2023-04-26T02:29:04;4.20;99.90
52139;DHT22;38131;53.256;6.460;2023-04-26T02:31:57;4.20;99.90
52139;DHT22;38131;53.256;6.460;2023-04-26T02:34:23;4.20;99.90
52139;DHT22;38131;53.256;6.460;2023-04-26T02:36:49;4.20;99.90
52139;DHT22;38131;53.256;6.460;2023-04-26T02:39:16;3.50;99.90
52139;DHT22;38131;53.256;6.460;2023-04-26T02:53:12;3.90;99.90
52139;DHT22;38131;53.256;6.460;2023-04-26T03:07:22;3.90;99.90
52139;DHT22;38131;53.256;6.460;2023-04-26T03:14:04;3.00;99.90
52139;DHT22;38131;53.256;6.460;2023-04-26T03:20:36;3.80;99.90
52139;DHT22;38131;53.256;6.460;2023-04-26T03:33:53;2.70;99.90
52139;DHT22;38131;53.256;6.460;2023-04-26T03:39:22;4.00;99.90
52139;DHT22;38131;53.256;6.460;2023-04-26T03:44:28;4.00;99.90
52139;DHT22;38131;53.256;6.460;2023-04-26T03:55:24;4.00;99.90
52139;DHT22;38131;53.256;6.460;2023-04-26T03:57:50;2.60;99.90
52139;DHT22;38131;53.256;6.460;2023-04-26T04:00:18;4.20;99.90
52139;DHT22;38131;53.256;6.460;2023-04-26T04:06:40;4.10;99.90
52139;DHT22;38131;53.256;6.460;2023-04-26T04:12:47;4.10;99.90
52139;DHT22;38131;53.256;6.460;2023-04-26T04:18:19;4.10;99.90
52139;DHT22;38131;53.256;6.460;2023-04-26T04:20:45;5.20;99.90
52139;DHT22;38131;53.256;6.460;2023-04-26T04:27:12;4.10;99.90
52139;DHT22;38131;53.256;6.460;2023-04-26T04:29:40;4.20;99.90
52139;DHT22;38131;53.256;6.460;2023-04-26T04:32:06;4.90;99.90
52139;DHT22;38131;53.256;6.460;2023-04-26T04:38:16;4.20;99.90
52139;DHT22;38131;53.256;6.460;2023-04-26T04:40:42;4.10;99.90
52139;DHT22;38131;53.256;6.460;2023-04-26T04:43:20;5.40;99.90
52139;DHT22;38131;53.256;6.460;2023-04-26T04:45:48;5.00;99.90
52139;DHT22;38131;53.256;6.460;2023-04-26T04:48:14;5.50;99.90
52139;DHT22;38131;53.256;6.460;2023-04-26T04:54:49;4.30;99.90
52139;DHT22;38131;53.256;6.460;2023-04-26T04:57:33;4.40;99.90
52139;DHT22;38131;53.256;6.460;2023-04-26T04:59:59;4.30;99.90
52139;DHT22;38131;53.256;6.460;2023-04-26T05:02:53;5.10;99.90
52139;DHT22;38131;53.256;6.460;2023-04-26T05:07:57;4.40;99.90
52139;DHT22;38131;53.256;6.460;2023-04-26T05:10:22;5.50;99.90
52139;DHT22;38131;53.256;6.460;2023-04-26T05:12:48;4.30;99.90
52139;DHT22;38131;53.256;6.460;2023-04-26T05:15:14;4.30;99.90
52139;DHT22;38131;53.256;6.460;2023-04-26T05:21:21;3.50;99.90
52139;DHT22;38131;53.256;6.460;2023-04-26T05:27:10;4.40;99.90
52139;DHT22;38131;53.256;6.460;2023-04-26T05:29:36;5.70;99.90
52139;DHT22;38131;53.256;6.460;2023-04-26T05:35:43;4.40;99.90
52139;DHT22;38131;53.256;6.460;2023-04-26T05:38:09;5.40;99.90
52139;DHT22;38131;53.256;6.460;2023-04-26T05:40:34;5.80;99.90
52139;DHT22;38131;53.256;6.460;2023-04-26T05:43:21;4.70;99.90
52139;DHT22;38131;53.256;6.460;2023-04-26T05:48:52;4.80;99.90
52139;DHT22;38131;53.256;6.460;2023-04-26T05:51:18;4.90;99.90
52139;DHT22;38131;53.256;6.460;2023-04-26T05:53:48;6.60;99.90
52139;DHT22;38131;53.256;6.460;2023-04-26T06:22:05;5.50;99.90
52139;DHT22;38131;53.256;6.460;2023-04-26T06:28:42;5.60;99.90
52139;DHT22;38131;53.256;6.460;2023-04-26T06:34:26;6.00;99.90
52139;DHT22;38131;53.256;6.460;2023-04-26T06:36:52;6.30;99.90
52139;DHT22;38131;53.256;6.460;2023-04-26T06:39:20;6.60;99.90
52139;DHT22;38131;53.256;6.460;2023-04-26T06:41:46;6.90;99.90
52139;DHT22;38131;53.256;6.460;2023-04-26T06:44:12;7.10;99.90
52139;DHT22;38131;53.256;6.460;2023-04-26T06:47:02;7.30;99.90
52139;DHT22;38131;53.256;6.460;2023-04-26T06:53:10;7.40;99.90
52139;DHT22;38131;53.256;6.460;2023-04-26T06:55:48;7.10;99.90
52139;DHT22;38131;53.256;6.460;2023-04-26T06:58:13;6.90;99.90
52139;DHT22;38131;53.256;6.460;2023-04-26T07:00:42;8.20;99.90
52139;DHT22;38131;53.256;6.460;2023-04-26T07:03:08;7.60;99.90
52139;DHT22;38131;53.256;6.460;2023-04-26T07:05:34;6.50;99.90
52139;DHT22;38131;53.256;6.460;2023-04-26T07:12:06;6.50;99.90
52139;DHT22;38131;53.256;6.460;2023-04-26T07:18:12;7.80;99.90
52139;DHT22;38131;53.256;6.460;2023-04-26T07:23:58;8.50;99.90
52139;DHT22;38131;53.256;6.460;2023-04-26T07:26:25;8.70;99.90
52139;DHT22;38131;53.256;6.460;2023-04-26T07:29:14;8.40;99.90
52139;DHT22;38131;53.256;6.460;2023-04-26T07:31:42;8.30;99.90
52139;DHT22;38131;53.256;6.460;2023-04-26T07:34:11;8.30;99.90
52139;DHT22;38131;53.256;6.460;2023-04-26T07:36:48;8.30;99.90
52139;DHT22;38131;53.256;6.460;2023-04-26T07:39:14;8.40;99.90
52139;DHT22;38131;53.256;6.460;2023-04-26T07:41:41;8.40;99.90
52139;DHT22;38131;53.256;6.460;2023-04-26T07:44:17;8.60;99.90
52139;DHT22;38131;53.256;6.460;2023-04-26T07:46:43;8.80;99.90
52139;DHT22;38131;53.256;6.460;2023-04-26T07:49:09;9.00;99.90
52139;DHT22;38131;53.256;6.460;2023-04-26T07:51:37;8.90;99.90
52139;DHT22;38131;53.256;6.460;2023-04-26T07:54:03;9.00;99.90
52139;DHT22;38131;53.256;6.460;2023-04-26T07:56:31;9.00;99.90
52139;DHT22;38131;53.256;6.460;2023-04-26T08:02:44;8.90;99.90
52139;DHT22;38131;53.256;6.460;2023-04-26T08:05:13;8.60;99.90
52139;DHT22;38131;53.256;6.460;2023-04-26T08:07:40;8.40;99.90
52139;DHT22;38131;53.256;6.460;2023-04-26T08:10:07;8.30;99.90
52139;DHT22;38131;53.256;6.460;2023-04-26T08:12:34;8.80;99.90
52139;DHT22;38131;53.256;6.460;2023-04-26T08:15:02;8.40;99.90
52139;DHT22;38131;53.256;6.460;2023-04-26T08:19:59;8.70;99.90
52139;DHT22;38131;53.256;6.460;2023-04-26T08:22:25;8.50;99.90
52139;DHT22;38131;53.256;6.460;2023-04-26T08:24:54;8.50;99.90
52139;DHT22;38131;53.256;6.460;2023-04-26T08:27:21;8.60;99.90
52139;DHT22;38131;53.256;6.460;2023-04-26T08:29:47;8.80;99.90
52139;DHT22;38131;53.256;6.460;2023-04-26T08:32:13;8.80;99.90
52139;DHT22;38131;53.256;6.460;2023-04-26T08:34:39;8.70;99.90
52139;DHT22;38131;53.256;6.460;2023-04-26T08:37:28;8.50;99.90
52139;DHT22;38131;53.256;6.460;2023-04-26T08:39:54;8.40;99.90
52139;DHT22;38131;53.256;6.460;2023-04-26T08:42:20;7.90;99.90
52139;DHT22;38131;53.256;6.460;2023-04-26T08:44:49;8.10;99.90
52139;DHT22;38131;53.256;6.460;2023-04-26T08:47:27;8.20;99.90
52139;DHT22;38131;53.256;6.460;2023-04-26T08:50:27;7.20;99.90
52139;DHT22;38131;53.256;6.460;2023-04-26T08:52:54;8.70;99.90
52139;DHT22;38131;53.256;6.460;2023-04-26T08:55:21;8.70;99.90
52139;DHT22;38131;53.256;6.460;2023-04-26T09:01:42;8.60;99.90
52139;DHT22;38131;53.256;6.460;2023-04-26T09:04:17;8.50;99.90
52139;DHT22;38131;53.256;6.460;2023-04-26T09:06:43;8.40;99.90
52139;DHT22;38131;53.256;6.460;2023-04-26T09:09:11;8.40;99.90
52139;DHT22;38131;53.256;6.460;2023-04-26T09:14:48;8.10;99.90
52139;DHT22;38131;53.256;6.460;2023-04-26T09:17:37;8.10;99.90
52139;DHT22;38131;53.256;6.460;2023-04-26T09:23:58;8.10;99.90
52139;DHT22;38131;53.256;6.460;2023-04-26T09:26:24;8.10;99.90
52139;DHT22;38131;53.256;6.460;2023-04-26T09:35:42;8.30;99.90
52139;DHT22;38131;53.256;6.460;2023-04-26T09:41:50;8.40;99.90
52139;DHT22;38131;53.256;6.460;2023-04-26T09:44:24;7.30;99.90
52139;DHT22;38131;53.256;6.460;2023-04-26T09:47:00;8.50;99.90
52139;DHT22;38131;53.256;6.460;2023-04-26T09:49:46;8.70;99.90
52139;DHT22;38131;53.256;6.460;2023-04-26T09:52:13;8.90;99.90
52139;DHT22;38131;53.256;6.460;2023-04-26T09:54:48;9.40;99.90
52139;DHT22;38131;53.256;6.460;2023-04-26T09:57:16;9.40;99.90
52139;DHT22;38131;53.256;6.460;2023-04-26T09:59:53;9.70;99.90
52139;DHT22;38131;53.256;6.460;2023-04-26T10:02:22;10.10;99.90
52139;DHT22;38131;53.256;6.460;2023-04-26T10:05:13;10.40;99.90
52139;DHT22;38131;53.256;6.460;2023-04-26T10:07:40;9.50;99.90
52139;DHT22;38131;53.256;6.460;2023-04-26T10:10:07;11.00;99.90
52139;DHT22;38131;53.256;6.460;2023-04-26T10:12:41;9.70;99.90
52139;DHT22;38131;53.256;6.460;2023-04-26T10:18:49;10.80;99.90
52139;DHT22;38131;53.256;6.460;2023-04-26T10:21:30;10.80;99.90
52139;DHT22;38131;53.256;6.460;2023-04-26T10:24:19;10.50;99.90
52139;DHT22;38131;53.256;6.460;2023-04-26T10:26:52;10.00;99.90
52139;DHT22;38131;53.256;6.460;2023-04-26T10:32:28;9.60;99.90
52139;DHT22;38131;53.256;6.460;2023-04-26T10:35:13;9.40;99.90
52139;DHT22;38131;53.256;6.460;2023-04-26T10:40:35;9.40;99.90
52139;DHT22;38131;53.256;6.460;2023-04-26T10:43:29;9.60;99.90
52139;DHT22;38131;53.256;6.460;2023-04-26T10:45:55;9.60;99.90
52139;DHT22;38131;53.256;6.460;2023-04-26T10:48:28;9.60;99.90
52139;DHT22;38131;53.256;6.460;2023-04-26T10:59:09;9.60;99.90
52139;DHT22;38131;53.256;6.460;2023-04-26T11:01:36;9.70;99.90
52139;DHT22;38131;53.256;6.460;2023-04-26T11:07:46;10.40;99.90
52139;DHT22;38131;53.256;6.460;2023-04-26T11:10:29;10.50;99.90
52139;DHT22;38131;53.256;6.460;2023-04-26T11:13:00;11.00;99.90
52139;DHT22;38131;53.256;6.460;2023-04-26T11:15:38;11.40;99.90
52139;DHT22;38131;53.256;6.460;2023-04-26T11:18:05;11.60;99.90
52139;DHT22;38131;53.256;6.460;2023-04-26T11:20:31;11.70;99.90
52139;DHT22;38131;53.256;6.460;2023-04-26T11:22:58;11.90;99.90
52139;DHT22;38131;53.256;6.460;2023-04-26T11:25:39;12.10;99.90
52139;DHT22;38131;53.256;6.460;2023-04-26T11:30:32;12.30;99.90
52139;DHT22;38131;53.256;6.460;2023-04-26T11:33:01;12.10;99.90
52139;DHT22;38131;53.256;6.460;2023-04-26T11:35:28;12.10;99.90
52139;DHT22;38131;53.256;6.460;2023-04-26T11:37:58;12.00;99.90
52139;DHT22;38131;53.256;6.460;2023-04-26T11:40:34;12.60;99.90
52139;DHT22;38131;53.256;6.460;2023-04-26T11:43:05;12.10;99.90
52139;DHT22;38131;53.256;6.460;2023-04-26T11:45:35;12.00;99.90
52139;DHT22;38131;53.256;6.460;2023-04-26T11:48:05;12.10;99.90
52139;DHT22;38131;53.256;6.460;2023-04-26T11:50:34;12.10;99.90
52139;DHT22;38131;53.256;6.460;2023-04-26T11:53:03;12.30;99.90
52139;DHT22;38131;53.256;6.460;2023-04-26T11:55:50;11.90;99.90
52139;DHT22;38131;53.256;6.460;2023-04-26T11:58:16;12.40;99.90
52139;DHT22;38131;53.256;6.460;2023-04-26T12:00:58;12.00;99.90
52139;DHT22;38131;53.256;6.460;2023-04-26T12:03:33;12.30;99.90
52139;DHT22;38131;53.256;6.460;2023-04-26T12:06:02;12.20;99.90
52139;DHT22;38131;53.256;6.460;2023-04-26T12:08:29;11.90;99.90
52139;DHT22;38131;53.256;6.460;2023-04-26T12:11:01;12.10;99.90
52139;DHT22;38131;53.256;6.460;2023-04-26T12:13:30;12.80;99.90
52139;DHT22;38131;53.256;6.460;2023-04-26T12:15:57;12.00;99.90
52139;DHT22;38131;53.256;6.460;2023-04-26T12:18:30;11.70;99.90
52139;DHT22;38131;53.256;6.460;2023-04-26T12:24:38;11.30;99.90
52139;DHT22;38131;53.256;6.460;2023-04-26T12:27:34;11.80;99.90
52139;DHT22;38131;53.256;6.460;2023-04-26T12:30:00;11.40;99.90
52139;DHT22;38131;53.256;6.460;2023-04-26T12:32:26;11.70;99.90
52139;DHT22;38131;53.256;6.460;2023-04-26T12:34:51;11.80;99.90
52139;DHT22;38131;53.256;6.460;2023-04-26T12:37:17;12.20;99.90
52139;DHT22;38131;53.256;6.460;2023-04-26T12:39:50;12.00;99.90
52139;DHT22;38131;53.256;6.460;2023-04-26T12:42:18;11.70;99.90
52139;DHT22;38131;53.256;6.460;2023-04-26T12:44:59;11.30;99.90
52139;DHT22;38131;53.256;6.460;2023-04-26T12:47:25;11.10;99.90
52139;DHT22;38131;53.256;6.460;2023-04-26T12:49:51;11.10;99.90
52139;DHT22;38131;53.256;6.460;2023-04-26T12:57:45;10.90;99.90
52139;DHT22;38131;53.256;6.460;2023-04-26T13:03:28;11.10;99.90
52139;DHT22;38131;53.256;6.460;2023-04-26T13:05:55;11.90;99.90
52139;DHT22;38131;53.256;6.460;2023-04-26T13:08:21;11.50;99.90
52139;DHT22;38131;53.256;6.460;2023-04-26T13:11:09;11.80;99.90
52139;DHT22;38131;53.256;6.460;2023-04-26T13:13:35;12.20;99.90
52139;DHT22;38131;53.256;6.460;2023-04-26T13:16:07;12.30;99.90
52139;DHT22;38131;53.256;6.460;2023-04-26T13:18:33;12.30;99.90
52139;DHT22;38131;53.256;6.460;2023-04-26T13:20:59;12.40;99.90
52139;DHT22;38131;53.256;6.460;2023-04-26T13:23:53;12.00;99.90
52139;DHT22;38131;53.256;6.460;2023-04-26T13:26:19;12.30;99.90
52139;DHT22;38131;53.256;6.460;2023-04-26T13:28:46;11.90;99.90
52139;DHT22;38131;53.256;6.460;2023-04-26T13:31:13;11.60;99.90
52139;DHT22;38131;53.256;6.460;2023-04-26T13:33:49;11.40;99.90
52139;DHT22;38131;53.256;6.460;2023-04-26T13:36:15;11.30;99.90
52139;DHT22;38131;53.256;6.460;2023-04-26T13:38:42;11.00;99.90
52139;DHT22;38131;53.256;6.460;2023-04-26T13:41:08;10.90;99.90
52139;DHT22;38131;53.256;6.460;2023-04-26T13:44:05;11.00;99.90
52139;DHT22;38131;53.256;6.460;2023-04-26T13:46:31;10.60;99.90
52139;DHT22;38131;53.256;6.460;2023-04-26T13:48:57;10.50;99.90
52139;DHT22;38131;53.256;6.460;2023-04-26T13:51:24;10.30;99.90
52139;DHT22;38131;53.256;6.460;2023-04-26T13:53:52;11.30;99.90
52139;DHT22;38131;53.256;6.460;2023-04-26T13:56:19;9.90;99.90
52139;DHT22;38131;53.256;6.460;2023-04-26T13:58:45;9.70;99.90
52139;DHT22;38131;53.256;6.460;2023-04-26T14:01:11;9.70;99.90
52139;DHT22;38131;53.256;6.460;2023-04-26T14:03:41;9.60;99.90
52139;DHT22;38131;53.256;6.460;2023-04-26T14:06:09;10.20;99.90
52139;DHT22;38131;53.256;6.460;2023-04-26T14:12:26;9.50;99.90
52139;DHT22;38131;53.256;6.460;2023-04-26T14:15:01;10.30;99.90
52139;DHT22;38131;53.256;6.460;2023-04-26T14:17:28;10.40;99.90
52139;DHT22;38131;53.256;6.460;2023-04-26T14:23:19;9.50;99.90
52139;DHT22;38131;53.256;6.460;2023-04-26T14:29:03;9.50;99.90
52139;DHT22;38131;53.256;6.460;2023-04-26T14:31:30;9.50;99.90
52139;DHT22;38131;53.256;6.460;2023-04-26T14:33:56;9.50;99.90
52139;DHT22;38131;53.256;6.460;2023-04-26T14:36:26;9.30;99.90
52139;DHT22;38131;53.256;6.460;2023-04-26T14:38:52;9.30;99.90
52139;DHT22;38131;53.256;6.460;2023-04-26T14:41:19;9.30;99.90
52139;DHT22;38131;53.256;6.460;2023-04-26T14:43:47;9.30;99.90
52139;DHT22;38131;53.256;6.460;2023-04-26T14:46:19;9.30;99.90
52139;DHT22;38131;53.256;6.460;2023-04-26T14:48:44;9.20;99.90
52139;DHT22;38131;53.256;6.460;2023-04-26T14:51:11;9.20;99.90
52139;DHT22;38131;53.256;6.460;2023-04-26T14:53:39;9.10;99.90
52139;DHT22;38131;53.256;6.460;2023-04-26T14:56:05;10.20;99.90
52139;DHT22;38131;53.256;6.460;2023-04-26T14:58:32;8.90;99.90
52139;DHT22;38131;53.256;6.460;2023-04-26T15:00:58;8.90;99.90
52139;DHT22;38131;53.256;6.460;2023-04-26T15:03:24;8.70;99.90
52139;DHT22;38131;53.256;6.460;2023-04-26T15:05:51;9.70;99.90
52139;DHT22;38131;53.256;6.460;2023-04-26T15:08:17;8.70;99.90
52139;DHT22;38131;53.256;6.460;2023-04-26T15:10:42;8.60;99.90
52139;DHT22;38131;53.256;6.460;2023-04-26T15:13:08;8.60;99.90
52139;DHT22;38131;53.256;6.460;2023-04-26T15:16:07;8.60;99.90
52139;DHT22;38131;53.256;6.460;2023-04-26T15:18:33;8.60;99.90
52139;DHT22;38131;53.256;6.460;2023-04-26T15:20:59;9.30;99.90
52139;DHT22;38131;53.256;6.460;2023-04-26T15:23:26;9.00;99.90
52139;DHT22;38131;53.256;6.460;2023-04-26T15:29:12;8.70;99.90
52139;DHT22;38131;53.256;6.460;2023-04-26T15:31:38;8.80;99.90
52139;DHT22;38131;53.256;6.460;2023-04-26T15:38:01;8.80;99.90
52139;DHT22;38131;53.256;6.460;2023-04-26T15:40:36;8.70;99.90
52139;DHT22;38131;53.256;6.460;2023-04-26T15:43:01;8.80;99.90
52139;DHT22;38131;53.256;6.460;2023-04-26T15:45:45;9.90;99.90
52139;DHT22;38131;53.256;6.460;2023-04-26T15:48:11;8.80;99.90
52139;DHT22;38131;53.256;6.460;2023-04-26T15:50:37;8.90;99.90
52139;DHT22;38131;53.256;6.460;2023-04-26T15:53:38;8.60;99.90
52139;DHT22;38131;53.256;6.460;2023-04-26T16:00:06;8.80;99.90
52139;DHT22;38131;53.256;6.460;2023-04-26T16:06:01;8.90;99.90
52139;DHT22;38131;53.256;6.460;2023-04-26T16:08:26;10.10;99.90
52139;DHT22;38131;53.256;6.460;2023-04-26T16:10:58;8.80;99.90
52139;DHT22;38131;53.256;6.460;2023-04-26T16:13:24;9.10;99.90
52139;DHT22;38131;53.256;6.460;2023-04-26T16:16:08;8.70;99.90
52139;DHT22;38131;53.256;6.460;2023-04-26T16:18:35;8.70;99.90
52139;DHT22;38131;53.256;6.460;2023-04-26T16:21:05;10.00;99.90
52139;DHT22;38131;53.256;6.460;2023-04-26T16:23:37;8.70;99.90
52139;DHT22;38131;53.256;6.460;2023-04-26T16:26:03;9.80;99.90
52139;DHT22;38131;53.256;6.460;2023-04-26T16:31:42;8.90;99.90
52139;DHT22;38131;53.256;6.460;2023-04-26T16:34:09;8.90;99.90
52139;DHT22;38131;53.256;6.460;2023-04-26T16:36:35;8.90;99.90
52139;DHT22;38131;53.256;6.460;2023-04-26T16:39:01;8.60;99.90
52139;DHT22;38131;53.256;6.460;2023-04-26T16:41:27;8.80;99.90
52139;DHT22;38131;53.256;6.460;2023-04-26T16:43:53;8.70;99.90
52139;DHT22;38131;53.256;6.460;2023-04-26T16:48:50;8.60;99.90
52139;DHT22;38131;53.256;6.460;2023-04-26T16:51:16;8.60;99.90
52139;DHT22;38131;53.256;6.460;2023-04-26T16:53:42;9.30;99.90
52139;DHT22;38131;53.256;6.460;2023-04-26T16:56:08;8.50;99.90
52139;DHT22;38131;53.256;6.460;2023-04-26T16:58:35;7.60;99.90
52139;DHT22;38131;53.256;6.460;2023-04-26T17:01:01;8.30;99.90
52139;DHT22;38131;53.256;6.460;2023-04-26T17:03:29;8.40;99.90
52139;DHT22;38131;53.256;6.460;2023-04-26T17:05:55;8.30;99.90
52139;DHT22;38131;53.256;6.460;2023-04-26T17:08:24;8.30;99.90
52139;DHT22;38131;53.256;6.460;2023-04-26T17:10:51;8.20;99.90
52139;DHT22;38131;53.256;6.460;2023-04-26T17:13:17;8.00;99.90
52139;DHT22;38131;53.256;6.460;2023-04-26T17:15:43;8.10;99.90
52139;DHT22;38131;53.256;6.460;2023-04-26T17:18:09;8.20;99.90
52139;DHT22;38131;53.256;6.460;2023-04-26T17:23:02;8.20;99.90
52139;DHT22;38131;53.256;6.460;2023-04-26T17:25:34;8.10;99.90
52139;DHT22;38131;53.256;6.460;2023-04-26T17:28:00;8.10;99.90
52139;DHT22;38131;53.256;6.460;2023-04-26T17:30:38;8.10;99.90
52139;DHT22;38131;53.256;6.460;2023-04-26T17:33:04;8.10;99.90
52139;DHT22;38131;53.256;6.460;2023-04-26T17:35:41;8.00;99.90
52139;DHT22;38131;53.256;6.460;2023-04-26T17:38:09;7.40;99.90
52139;DHT22;38131;53.256;6.460;2023-04-26T17:40:38;8.00;99.90
52139;DHT22;38131;53.256;6.460;2023-04-26T17:45:30;7.90;99.90
52139;DHT22;38131;53.256;6.460;2023-04-26T17:47:56;7.90;99.90
52139;DHT22;38131;53.256;6.460;2023-04-26T17:50:24;7.90;99.90
52139;DHT22;38131;53.256;6.460;2023-04-26T17:52:51;7.80;99.90
52139;DHT22;38131;53.256;6.460;2023-04-26T17:55:17;7.80;99.90
52139;DHT22;38131;53.256;6.460;2023-04-26T17:57:42;7.70;99.90
52139;DHT22;38131;53.256;6.460;2023-04-26T18:00:19;7.60;99.90
52139;DHT22;38131;53.256;6.460;2023-04-26T18:02:48;7.50;99.90
52139;DHT22;38131;53.256;6.460;2023-04-26T18:05:16;7.50;99.90
52139;DHT22;38131;53.256;6.460;2023-04-26T18:07:56;7.50;99.90
52139;DHT22;38131;53.256;6.460;2023-04-26T18:10:22;7.30;99.90
52139;DHT22;38131;53.256;6.460;2023-04-26T18:12:48;7.40;99.90
52139;DHT22;38131;53.256;6.460;2023-04-26T18:18:37;7.30;99.90
52139;DHT22;38131;53.256;6.460;2023-04-26T18:21:05;7.30;99.90
52139;DHT22;38131;53.256;6.460;2023-04-26T18:26:26;7.40;99.90
52139;DHT22;38131;53.256;6.460;2023-04-26T18:28:52;7.40;99.90
52139;DHT22;38131;53.256;6.460;2023-04-26T18:31:50;6.40;99.90
52139;DHT22;38131;53.256;6.460;2023-04-26T18:34:20;7.20;99.90
52139;DHT22;38131;53.256;6.460;2023-04-26T18:37:03;7.10;99.90
52139;DHT22;38131;53.256;6.460;2023-04-26T18:39:29;8.30;99.90
52139;DHT22;38131;53.256;6.460;2023-04-26T18:41:56;7.00;99.90
52139;DHT22;38131;53.256;6.460;2023-04-26T18:44:44;7.00;99.90
52139;DHT22;38131;53.256;6.460;2023-04-26T18:52:08;7.40;99.90
52139;DHT22;38131;53.256;6.460;2023-04-26T18:58:33;6.60;99.90
52139;DHT22;38131;53.256;6.460;2023-04-26T19:08:36;6.50;99.90
52139;DHT22;38131;53.256;6.460;2023-04-26T19:14:21;6.40;99.90
52139;DHT22;38131;53.256;6.460;2023-04-26T19:16:47;6.20;99.90
52139;DHT22;38131;53.256;6.460;2023-04-26T19:19:13;6.20;99.90
52139;DHT22;38131;53.256;6.460;2023-04-26T19:21:39;6.10;99.90
52139;DHT22;38131;53.256;6.460;2023-04-26T19:24:06;6.00;99.90
52139;DHT22;38131;53.256;6.460;2023-04-26T19:26:32;6.00;99.90
52139;DHT22;38131;53.256;6.460;2023-04-26T19:28:58;6.00;99.90
52139;DHT22;38131;53.256;6.460;2023-04-26T19:31:23;6.00;99.90
52139;DHT22;38131;53.256;6.460;2023-04-26T19:33:49;6.10;99.90
52139;DHT22;38131;53.256;6.460;2023-04-26T19:36:15;5.90;99.90
52139;DHT22;38131;53.256;6.460;2023-04-26T19:41:22;5.90;99.90
52139;DHT22;38131;53.256;6.460;2023-04-26T19:43:48;5.90;99.90
52139;DHT22;38131;53.256;6.460;2023-04-26T19:46:15;5.80;99.90
52139;DHT22;38131;53.256;6.460;2023-04-26T19:48:40;6.40;99.90
52139;DHT22;38131;53.256;6.460;2023-04-26T19:53:35;5.70;99.90
52139;DHT22;38131;53.256;6.460;2023-04-26T19:56:03;5.70;99.90
52139;DHT22;38131;53.256;6.460;2023-04-26T19:58:32;5.60;99.90
52139;DHT22;38131;53.256;6.460;2023-04-26T20:00:58;5.60;99.90
52139;DHT22;38131;53.256;6.460;2023-04-26T20:03:24;5.50;99.90
52139;DHT22;38131;53.256;6.460;2023-04-26T20:05:52;5.60;99.90
52139;DHT22;38131;53.256;6.460;2023-04-26T20:08:17;6.90;99.90
52139;DHT22;38131;53.256;6.460;2023-04-26T20:10:45;6.70;99.90
52139;DHT22;38131;53.256;6.460;2023-04-26T20:13:13;5.50;99.90
52139;DHT22;38131;53.256;6.460;2023-04-26T20:15:40;6.70;99.90
52139;DHT22;38131;53.256;6.460;2023-04-26T20:18:06;5.60;99.90
52139;DHT22;38131;53.256;6.460;2023-04-26T20:20:32;6.70;99.90
52139;DHT22;38131;53.256;6.460;2023-04-26T20:22:58;5.30;99.90
52139;DHT22;38131;53.256;6.460;2023-04-26T20:25:24;6.40;99.90
52139;DHT22;38131;53.256;6.460;2023-04-26T20:27:50;5.30;99.90
52139;DHT22;38131;53.256;6.460;2023-04-26T20:30:17;5.80;99.90
52139;DHT22;38131;53.256;6.460;2023-04-26T20:32:42;5.50;99.90
52139;DHT22;38131;53.256;6.460;2023-04-26T20:35:15;5.30;99.90
52139;DHT22;38131;53.256;6.460;2023-04-26T20:40:16;5.20;99.90
52139;DHT22;38131;53.256;6.460;2023-04-26T20:42:41;5.20;99.90
52139;DHT22;38131;53.256;6.460;2023-04-26T20:45:15;5.30;99.90
52139;DHT22;38131;53.256;6.460;2023-04-26T20:47:42;5.20;99.90
52139;DHT22;38131;53.256;6.460;2023-04-26T20:50:09;5.10;99.90
52139;DHT22;38131;53.256;6.460;2023-04-26T20:52:37;5.10;99.90
52139;DHT22;38131;53.256;6.460;2023-04-26T20:55:03;5.20;99.90
52139;DHT22;38131;53.256;6.460;2023-04-26T20:57:35;5.00;99.90
52139;DHT22;38131;53.256;6.460;2023-04-26T21:00:00;5.90;99.90
52139;DHT22;38131;53.256;6.460;2023-04-26T21:04:55;4.90;99.90
52139;DHT22;38131;53.256;6.460;2023-04-26T21:07:21;4.90;99.90
52139;DHT22;38131;53.256;6.460;2023-04-26T21:09:47;4.90;99.90
52139;DHT22;38131;53.256;6.460;2023-04-26T21:12:23;4.90;99.90
52139;DHT22;38131;53.256;6.460;2023-04-26T21:14:50;5.90;99.90
52139;DHT22;38131;53.256;6.460;2023-04-26T21:17:16;4.80;99.90
52139;DHT22;38131;53.256;6.460;2023-04-26T21:19:42;4.80;99.90
52139;DHT22;38131;53.256;6.460;2023-04-26T21:22:09;4.80;99.90
52139;DHT22;38131;53.256;6.460;2023-04-26T21:24:35;4.70;99.90
52139;DHT22;38131;53.256;6.460;2023-04-26T21:27:01;4.70;99.90
52139;DHT22;38131;53.256;6.460;2023-04-26T21:32:11;4.70;99.90
52139;DHT22;38131;53.256;6.460;2023-04-26T21:34:37;5.60;99.90
52139;DHT22;38131;53.256;6.460;2023-04-26T21:37:03;4.60;99.90
52139;DHT22;38131;53.256;6.460;2023-04-26T21:39:29;4.80;99.90
52139;DHT22;38131;53.256;6.460;2023-04-26T21:41:54;4.50;99.90
52139;DHT22;38131;53.256;6.460;2023-04-26T21:44:20;4.40;99.90
52139;DHT22;38131;53.256;6.460;2023-04-26T21:46:46;4.20;99.90
52139;DHT22;38131;53.256;6.460;2023-04-26T21:49:12;4.40;99.90
52139;DHT22;38131;53.256;6.460;2023-04-26T21:51:39;4.40;99.90
52139;DHT22;38131;53.256;6.460;2023-04-26T21:54:05;4.80;99.90
52139;DHT22;38131;53.256;6.460;2023-04-26T21:56:30;4.40;99.90
52139;DHT22;38131;53.256;6.460;2023-04-26T21:58:56;4.40;99.90
52139;DHT22;38131;53.256;6.460;2023-04-26T22:01:23;4.40;99.90
52139;DHT22;38131;53.256;6.460;2023-04-26T22:03:49;3.80;99.90
52139;DHT22;38131;53.256;6.460;2023-04-26T22:06:24;4.40;99.90
52139;DHT22;38131;53.256;6.460;2023-04-26T22:08:50;4.30;99.90
52139;DHT22;38131;53.256;6.460;2023-04-26T22:11:15;4.40;99.90
52139;DHT22;38131;53.256;6.460;2023-04-26T22:13:41;4.20;99.90
52139;DHT22;38131;53.256;6.460;2023-04-26T22:16:07;4.80;99.90
52139;DHT22;38131;53.256;6.460;2023-04-26T22:18:33;5.40;99.90
52139;DHT22;38131;53.256;6.460;2023-04-26T22:21:00;4.20;99.90
52139;DHT22;38131;53.256;6.460;2023-04-26T22:23:26;4.20;99.90
52139;DHT22;38131;53.256;6.460;2023-04-26T22:26:10;5.80;99.90
52139;DHT22;38131;53.256;6.460;2023-04-26T22:28:36;4.20;99.90
52139;DHT22;38131;53.256;6.460;2023-04-26T22:31:08;4.20;99.90
52139;DHT22;38131;53.256;6.460;2023-04-26T22:36:16;4.20;99.90
52139;DHT22;38131;53.256;6.460;2023-04-26T22:38:42;3.40;99.90